Time,TemperatureF,DewpointF,PressureIn,WindDirection,WindDirectionDegrees,WindSpeedMPH,WindSpeedGustMPH,Humidity,HourlyPrecipIn,Conditions,Clouds,dailyrainin,SoftwareType,DateUTC
2013-10-04 01:29:00,67.0,65.0,29.98,ESE,119,1.0,3.0,92,0.00,,,0.50,,2013-10-04 05:29:00,
2013-10-04 02:00:00,68.0,65.0,29.97,SW,214,2.0,6.0,91,0.00,,,0.50,,2013-10-04 06:00:00,
2013-10-04 02:19:00,68.0,65.0,29.98,SSW,209,2.0,4.0,91,0.00,,,0.50,,2013-10-04 06:19:00,
2013-10-04 02:28:00,68.0,65.0,29.98,South,186,2.0,3.0,91,0.00,,,0.50,,2013-10-04 06:28:00,
2013-10-04 02:59:00,68.0,65.0,29.99,WSW,244,1.0,4.0,91,0.00,,,0.50,,2013-10-04 06:59:00,
2013-10-04 03:18:00,68.0,65.0,30.01,SW,230,2.0,5.0,91,0.00,,,0.50,,2013-10-04 07:18:00,
2013-10-04 03:28:00,68.0,65.0,30.00,South,174,3.0,6.0,90,0.00,,,0.50,,2013-10-04 07:28:00,
2013-10-04 03:47:00,68.0,65.0,30.01,WSW,242,2.0,7.0,89,0.00,,,0.50,,2013-10-04 07:47:00,
2013-10-04 03:59:00,68.0,65.0,30.01,SW,236,1.0,4.0,89,0.00,,,0.50,,2013-10-04 07:59:00,
2013-10-04 04:18:00,68.0,65.0,30.01,SW,233,1.0,3.0,89,0.00,,,0.50,,2013-10-04 08:18:00,
2013-10-04 04:28:00,68.0,64.0,30.01,WSW,240,1.0,3.0,88,0.00,,,0.50,,2013-10-04 08:28:00,
2013-10-04 04:47:00,67.0,63.0,30.01,WSW,243,1.0,4.0,88,0.00,,,0.50,,2013-10-04 08:47:00,
2013-10-04 04:59:00,67.0,63.0,30.01,SW,236,1.0,3.0,88,0.00,,,0.50,,2013-10-04 08:59:00,
2013-10-04 05:18:00,67.0,63.0,30.01,SW,229,1.0,3.0,88,0.00,,,0.50,,2013-10-04 09:18:00,
2013-10-04 05:28:00,67.0,63.0,30.01,SW,234,1.0,2.0,88,0.00,,,0.50,,2013-10-04 09:28:00,
2013-10-04 05:49:00,66.0,63.0,30.01,SSW,212,0.0,2.0,89,0.00,,,0.50,,2013-10-04 09:49:00,
2013-10-04 06:01:00,66.0,63.0,30.01,SSE,163,0.0,0.0,89,0.00,,,0.50,,2013-10-04 10:01:00,
2013-10-04 06:21:00,66.0,63.0,30.01,SSW,208,0.0,3.0,89,0.00,,,0.50,,2013-10-04 10:21:00,
2013-10-04 06:31:00,66.0,63.0,30.02,SSW,212,0.0,1.0,90,0.00,,,0.44,,2013-10-04 10:31:00,
2013-10-04 06:50:00,66.0,63.0,30.02,SE,128,0.0,1.0,90,0.00,,,0.44,,2013-10-04 10:50:00,
2013-10-04 07:01:00,66.0,63.0,30.02,SE,144,0.0,1.0,91,0.00,,,0.44,,2013-10-04 11:01:00,
2013-10-04 07:21:00,66.0,63.0,30.02,SSE,148,0.0,1.0,91,0.00,,,0.44,,2013-10-04 11:21:00,
2013-10-04 07:30:00,66.0,63.0,30.03,SSE,148,0.0,0.0,91,0.00,,,0.44,,2013-10-04 11:30:00,
2013-10-04 07:49:00,66.0,64.0,30.03,SSE,149,0.0,1.0,92,0.00,,,0.44,,2013-10-04 11:49:00,
2013-10-04 08:01:00,66.0,64.0,30.03,SSE,156,1.0,2.0,92,0.00,,,0.44,,2013-10-04 12:01:00,
2013-10-04 08:21:00,66.0,64.0,30.04,SSW,203,0.0,2.0,92,0.00,,,0.44,,2013-10-04 12:21:00,
2013-10-04 08:30:00,66.0,63.0,30.03,South,173,0.0,1.0,91,0.00,,,0.44,,2013-10-04 12:30:00,
2013-10-04 08:49:00,66.0,63.0,30.03,SSE,151,1.0,3.0,91,0.00,,,0.44,,2013-10-04 12:49:00,
2013-10-04 09:01:00,67.0,64.0,30.03,SSE,160,1.0,3.0,91,0.00,,,0.44,,2013-10-04 13:01:00,
2013-10-04 09:20:00,67.0,64.0,30.03,SW,221,1.0,5.0,90,0.00,,,0.44,,2013-10-04 13:20:00,
2013-10-04 09:30:00,67.0,64.0,30.04,SW,217,1.0,3.0,91,0.00,,,0.44,,2013-10-04 13:30:00,
2013-10-04 09:49:00,68.0,65.0,30.04,SSW,211,2.0,4.0,90,0.00,,,0.44,,2013-10-04 13:49:00,
2013-10-04 10:00:00,68.0,65.0,30.04,SSE,160,1.0,4.0,90,0.00,,,0.44,,2013-10-04 14:00:00,
2013-10-04 10:20:00,70.0,66.0,30.04,ESE,102,2.0,6.0,88,0.00,,,0.44,,2013-10-04 14:20:00,
2013-10-04 10:30:00,71.0,67.0,30.04,SSE,158,4.0,9.0,86,0.00,,,0.44,,2013-10-04 14:30:00,
2013-10-04 10:49:00,72.0,67.0,30.04,SW,228,4.0,8.0,85,0.00,,,0.44,,2013-10-04 14:49:00,
2013-10-04 11:01:00,73.0,68.0,30.04,SW,219,4.0,9.0,83,0.00,,,0.44,,2013-10-04 15:01:00,
2013-10-04 11:21:00,73.0,68.0,30.04,SW,227,4.0,9.0,83,0.00,,,0.44,,2013-10-04 15:21:00,
2013-10-04 11:30:00,74.0,67.0,30.04,WSW,238,4.0,8.0,80,0.00,,,0.41,,2013-10-04 15:30:00,
2013-10-04 11:50:00,75.0,68.0,30.04,West,271,3.0,9.0,80,0.00,,,0.41,,2013-10-04 15:50:00,
2013-10-04 12:01:00,76.0,69.0,30.04,South,191,3.0,8.0,79,0.00,,,0.41,,2013-10-04 16:01:00,
2013-10-04 12:21:00,77.0,70.0,30.04,SW,227,2.0,6.0,78,0.00,,,0.41,,2013-10-04 16:21:00,
2013-10-04 12:31:00,78.0,70.0,30.04,SW,233,3.0,6.0,76,0.00,,,0.41,,2013-10-04 16:31:00,
2013-10-04 12:50:00,79.0,70.0,30.04,WSW,242,1.0,7.0,75,0.00,,,0.41,,2013-10-04 16:50:00,
2013-10-04 13:01:00,78.0,70.0,30.04,WSW,258,1.0,6.0,76,0.00,,,0.41,,2013-10-04 17:01:00,
2013-10-04 13:21:00,78.0,69.0,30.04,West,269,0.0,3.0,74,0.00,,,0.41,,2013-10-04 17:21:00,
2013-10-04 13:31:00,78.0,69.0,30.04,NW,304,0.0,3.0,74,0.00,,,0.41,,2013-10-04 17:31:00,
2013-10-04 14:04:00,78.0,70.0,30.03,SSW,205,1.0,2.0,77,0.00,,,0.41,,2013-10-04 18:04:00,
2013-10-04 14:23:00,75.0,68.0,30.04,SSE,159,2.0,7.0,80,0.16,,,0.57,,2013-10-04 18:23:00,
2013-10-04 14:32:00,74.0,70.0,30.03,West,269,1.0,3.0,88,0.20,,,0.61,,2013-10-04 18:32:00,
2013-10-04 14:51:00,73.0,69.0,30.04,NE,45,0.0,3.0,86,0.20,,,0.61,,2013-10-04 18:51:00,
2013-10-04 14:56:00,72.0,69.0,30.03,NE,34,4.0,6.0,90,0.39,,,0.80,,2013-10-04 18:56:00,
2013-10-04 15:12:00,70.0,67.0,30.03,NW,322,4.0,13.0,89,0.36,,,0.93,,2013-10-04 19:12:00,
2013-10-04 15:22:00,69.0,65.0,30.03,South,170,0.0,6.0,88,0.52,,,1.13,,2013-10-04 19:22:00,
2013-10-04 15:43:00,68.0,66.0,30.02,SW,229,0.0,2.0,92,0.61,,,1.22,,2013-10-04 19:43:00,
2013-10-04 15:53:00,69.0,67.0,30.01,SSE,150,0.0,2.0,93,0.40,,,1.22,,2013-10-04 19:53:00,
2013-10-04 16:11:00,71.0,69.0,30.01,SSE,150,0.0,0.0,94,0.29,,,1.22,,2013-10-04 20:11:00,
2013-10-04 16:22:00,71.0,69.0,30.01,SSE,158,1.0,2.0,92,0.08,,,1.21,,2013-10-04 20:22:00,
2013-10-04 16:53:00,73.0,70.0,30.00,SSE,158,0.0,1.0,89,0.00,,,1.21,,2013-10-04 20:53:00,
2013-10-04 17:12:00,75.0,71.0,30.01,SSE,158,0.0,0.0,88,0.00,,,1.21,,2013-10-04 21:12:00,
2013-10-04 17:22:00,77.0,71.0,30.01,North,355,1.0,2.0,82,0.00,,,1.21,,2013-10-04 21:22:00,
2013-10-04 17:54:00,83.0,73.0,30.00,North,358,0.0,1.0,71,0.00,,,1.21,,2013-10-04 21:54:00,
2013-10-04 18:23:00,83.0,72.0,30.00,North,358,0.0,1.0,69,0.00,,,1.21,,2013-10-04 22:23:00,
2013-10-04 18:43:00,82.0,72.0,29.99,North,358,0.0,0.0,71,0.00,,,1.21,,2013-10-04 22:43:00,
2013-10-04 18:53:00,83.0,73.0,30.00,North,358,0.0,1.0,71,0.00,,,1.21,,2013-10-04 22:53:00,
2013-10-04 19:12:00,79.0,71.0,30.00,North,358,0.0,0.0,76,0.00,,,1.21,,2013-10-04 23:12:00,
2013-10-04 19:22:00,76.0,70.0,30.00,North,358,0.0,0.0,82,0.00,,,1.21,,2013-10-04 23:22:00,
2013-10-04 19:42:00,74.0,70.0,30.00,North,358,0.0,0.0,86,0.00,,,1.21,,2013-10-04 23:42:00,
2013-10-04 19:53:00,72.0,69.0,30.01,North,358,0.0,0.0,89,0.00,,,1.21,,2013-10-04 23:53:00,
2013-10-04 20:12:00,72.0,69.0,30.01,North,357,0.0,1.0,89,0.00,,,1.21,,2013-10-05 00:12:00,
2013-10-04 20:23:00,71.0,68.0,30.01,WNW,286,0.0,0.0,89,0.00,,,1.21,,2013-10-05 00:23:00,
2013-10-04 20:42:00,71.0,68.0,30.01,WNW,286,0.0,0.0,90,0.00,,,1.21,,2013-10-05 00:42:00,
2013-10-04 20:53:00,70.0,67.0,30.01,WNW,286,0.0,0.0,91,0.00,,,1.21,,2013-10-05 00:53:00,
2013-10-04 21:11:00,70.0,68.0,30.01,WNW,286,0.0,1.0,92,0.00,,,1.21,,2013-10-05 01:11:00,
2013-10-04 21:22:00,70.0,68.0,30.02,WNW,286,0.0,1.0,93,0.00,,,1.21,,2013-10-05 01:22:00,
2013-10-04 21:43:00,69.0,67.0,30.02,WNW,286,0.0,0.0,94,0.00,,,1.21,,2013-10-05 01:43:00,
2013-10-04 21:52:00,69.0,68.0,30.02,WNW,286,0.0,0.0,95,0.00,,,1.21,,2013-10-05 01:52:00,
2013-10-04 22:11:00,69.0,68.0,30.02,West,264,0.0,0.0,95,0.00,,,1.21,,2013-10-05 02:11:00,
2013-10-04 22:22:00,69.0,68.0,30.03,South,172,0.0,0.0,96,0.00,,,0.82,,2013-10-05 02:22:00,
2013-10-04 22:42:00,69.0,68.0,30.03,SSE,168,0.0,0.0,95,0.00,,,0.82,,2013-10-05 02:42:00,
2013-10-04 22:52:00,69.0,68.0,30.03,SSE,168,0.0,0.0,95,0.00,,,0.82,,2013-10-05 02:52:00,
2013-10-04 23:12:00,69.0,68.0,30.04,SSE,168,0.0,0.0,95,0.00,,,0.82,,2013-10-05 03:12:00,
2013-10-04 23:23:00,68.0,67.0,30.04,SSE,168,0.0,0.0,95,0.00,,,0.81,,2013-10-05 03:23:00,
2013-10-04 23:45:00,68.0,67.0,30.04,SSE,168,0.0,0.0,96,0.00,,,0.81,,2013-10-05 03:45:00,
2013-10-04 23:55:00,68.0,67.0,30.04,SSE,168,0.0,0.0,96,0.00,,,0.81,,2013-10-05 03:55:00,